CWEU

Eureka Airport

Eureka, Canada

CWEU 230300Z VRB02KT 15SM -SN BKN021 M27/M31 A3004 RMK SC6 LAST OBS/NEXT 230600Z SLP175

Observed Flight Rules
Oct-23 @ 03:00 UTC (3 hours ago)
 
Marginal Visual Flight Rules
Wind Visibility Clouds Conditions
Variable at 2 knots 15 miles
  • Broken at 2,100' AGL
  • Light Snow
Temperatures Readings
Current -27°C / -17°F
Dewpoint -31°C / -24°F
Humidity 69%
Altimeter 30.04" Hg
Pressure 1017.5 hPa
Elevation 10
Observed Flight Rules
Oct-23 @ 03:00 UTC
(3 hours ago)
 
MVFR
Wind Visibility
Variable at 2 knots 15 miles
Clouds Conditions
  • Broken at 2,100' AGL
  • Light Snow
Temperature Dewpoint
-27°C / -17°F -31°C / -24°F
Humidity Altimeter Pressure
69% 30.04" Hg 1017.5 hPa